• Join FlightAware (Why Join?)
  • Login
  • US Flag 
11:05AM EDT


 

Airport Tracker/Info


-or-


 

Live Flight TrackerFlight Track Log ✈ SWA2770 ✈ 02-Jul-2013 ✈ KDAL - KSAT

Flight Track Log - Related Links

Times and Time Zones

All times are in EDT time to prevent confusion due to time zone crossing. See the SWA2770 flight status page for this flight to view local times or setup timezone preferences in your user account.

Time Position Orientation Groundspeed Altitude Reporting Facility
EDT Latitude Longitude Course Direction KTS MPH feet Rate Location/Type
07:06AM 32.8500 -96.8667 301° West 142 163 1,600  Level Dallas / Fort Worth TRACON
07:07AM 32.8833 -96.9333 301° West 213 245 6,500 3,360 Climbing Dallas / Fort Worth TRACON
07:08AM 32.8167 -96.9500 192° South 306 352 9,700 3,780 Climbing Dallas / Fort Worth TRACON
07:10AM 32.5800 -97.0042 191° South 371 427 19,700 3,840 Climbing Fort Worth Center
07:11AM 32.4842 -97.0242 190° South 376 433 23,100 3,780 Climbing Fort Worth Center
07:12AM 32.3631 -97.0519 191° South 394 453 27,300 3,420 Climbing Fort Worth Center
07:13AM 32.2547 -97.0792 192° South 400 460 30,000 1,320 Climbing Fort Worth Center
07:14AM 32.1461 -97.1067 192° South 400 460 30,000  Level Fort Worth Center
07:15AM 32.0397 -97.1339 192° South 400 460 30,000  Level Fort Worth Center
07:16AM 31.9436 -97.1564 191° South 392 451 30,000  Level Fort Worth Center
07:17AM 31.8528 -97.1775 191° South 394 453 30,000  Level Houston Center
07:18AM 31.7428 -97.2036 191° South 398 458 30,000  Level Houston Center
07:19AM 31.6331 -97.2303 192° South 398 458 30,000  Level Houston Center
07:20AM 31.5242 -97.2567 192° South 397 457 30,000  Level Houston Center
07:21AM 31.4147 -97.2831 192° South 397 457 30,000  Level Houston Center
07:22AM 31.3061 -97.3094 192° South 396 456 30,000  Level Houston Center
07:23AM 31.1978 -97.3364 192° South 395 455 30,000  Level Houston Center
07:24AM 31.0897 -97.3625 192° South 394 453 30,000  Level Houston Center
07:25AM 30.9831 -97.3889 192° South 395 455 30,000  Level Houston Center
07:26AM 30.8744 -97.4144 191° South 401 461 30,000  Level Houston Center
07:27AM 30.7497 -97.4422 191° South 393 452 30,000  Level Houston Center
07:28AM 30.6422 -97.4678 192° South 391 450 30,000 -660 Level Houston Center
07:29AM 30.5347 -97.4931 191° South 392 451 28,700 -1,920 Descending Houston Center
07:30AM 30.4264 -97.5183 191° South 392 451 26,200 -2,400 Descending Houston Center
07:31AM 30.3275 -97.5636 202° Southwest 387 445 23,900 -2,220 Descending Houston Center
07:33AM 30.2400 -97.6239 211° Southwest 367 422 21,700 -2,220 Descending Houston Center
07:34AM 30.1392 -97.6958 212° Southwest 356 410 19,100 -2,100 Descending Houston Center
07:35AM 30.0672 -97.7450 211° Southwest 351 404 17,500 -2,040 Descending Houston Center
07:36AM 29.9869 -97.8006 211° Southwest 338 389 15,300 -2,040 Descending Houston Center
07:37AM 29.9083 -97.8575 212° Southwest 335 386 13,400 -1,920 Descending Houston Center
07:38AM 29.8525 -97.9306 229° Southwest 306 352 11,500 -1,680 Descending Houston Center
07:39AM 29.7900 -98.0042 226° Southwest 299 344 10,000 -1,680 Descending Houston Center
07:40AM 29.7347 -98.0714 227° Southwest 291 335 8,200 -1,800 Descending Houston Center
07:41AM 29.6786 -98.1381 226° Southwest 290 334 6,400 -1,260 Descending Houston Center
07:42AM 29.6261 -98.2017 226° Southwest 270 311 5,700 -1,200 Descending Houston Center
07:43AM 29.5719 -98.2664 226° Southwest 262 302 4,000 -1,260 Descending Houston Center
07:44AM 29.5231 -98.3250 226° Southwest 254 292 3,200 -720 Descending Houston Center
07:45AM 29.4933 -98.3819 239° Southwest 210 242 2,600 -720 Descending Houston Center
07:46AM 29.4975 -98.4297 276° West 152 175 1,800 -840 Descending Houston Center
07:47AM 29.5214 -98.4569 315° West 123 142 1,000 -840 Descending Houston Center
07:49AM 29.5333 -98.4667 16° North  Level FlightAware Approximate